KNN weather

Kankan Airport
Kankan, Kankan Region, Guinea

Public forecast

Using degrees Celsius for public forecast. Weather courtesy of forecast.io.

METAR (pilot weather report)

Report is more than 6 hours old.

Closest report is Odienne Airport, 115.9 nm (214.6 km) ESE. Retrieved 2018/07/31 14:00 UTC (10 months ago):

DIOD 311400Z 18002KT 9999 BKN013 27/21 Q1016 NOSIG

TAF (pilot weather forecast)

Forecast is more than 12 hours old.

Closest forecast is Boundiali Airport, 175.5 nm (325.1 km) ESE. Retrieved 2009/12/27 10:00 UTC (9 years ago):

TAF DIBI 271000Z 2712/2812 30008KT 6000 FEW015 PROB30 TEMPO 2715/2719 3000 HZ TEMPO 2806/2809 3000 BR